Time,TemperatureF,DewpointF,PressureIn,WindDirection,WindDirectionDegrees,WindSpeedMPH,WindSpeedGustMPH,Humidity,HourlyPrecipIn,Conditions,Clouds,dailyrainin,SoftwareType,DateUTC
2013-12-02 00:12:00,37.0,35.0,29.70,North,0,1.0,2.0,94,0.01,,,0.18,,2013-12-02 07:12:00,
2013-12-02 00:21:00,36.0,34.0,29.69,SW,225,0.0,2.0,94,0.01,,,0.18,,2013-12-02 07:21:00,
2013-12-02 00:42:00,36.0,34.0,29.69,SE,135,0.0,4.0,94,0.01,,,0.18,,2013-12-02 07:42:00,
2013-12-02 00:52:00,36.0,34.0,29.68,SW,225,2.0,4.0,94,0.01,,,0.20,,2013-12-02 07:52:00,
2013-12-02 01:11:00,36.0,35.0,29.68,West,270,1.0,4.0,95,0.01,,,0.20,,2013-12-02 08:11:00,
2013-12-02 01:22:00,36.0,35.0,29.68,East,90,0.0,8.0,96,0.03,,,0.22,,2013-12-02 08:22:00,
2013-12-02 01:42:00,36.0,35.0,29.67,East,90,0.0,6.0,95,0.03,,,0.22,,2013-12-02 08:42:00,
2013-12-02 01:52:00,37.0,36.0,29.66,West,270,1.0,8.0,95,0.02,,,0.21,,2013-12-02 08:52:00,
2013-12-02 02:11:00,36.0,34.0,29.66,South,180,1.0,5.0,94,0.02,,,0.21,,2013-12-02 09:11:00,
2013-12-02 02:21:00,36.0,34.0,29.66,SE,135,2.0,5.0,94,0.00,,,0.21,,2013-12-02 09:21:00,
2013-12-02 02:43:00,37.0,35.0,29.65,NE,45,2.0,8.0,92,0.00,,,0.21,,2013-12-02 09:43:00,
2013-12-02 02:54:00,36.0,34.0,29.64,SE,135,2.0,7.0,91,0.00,,,0.21,,2013-12-02 09:54:00,
2013-12-02 03:12:00,37.0,34.0,29.65,West,270,1.0,7.0,90,0.00,,,0.21,,2013-12-02 10:12:00,
2013-12-02 03:23:00,37.0,34.0,29.64,NW,315,2.0,6.0,89,0.00,,,0.21,,2013-12-02 10:23:00,
2013-12-02 03:42:00,37.0,34.0,29.63,SE,135,3.0,8.0,89,0.00,,,0.21,,2013-12-02 10:42:00,
2013-12-02 03:52:00,36.0,33.0,29.63,NE,45,2.0,8.0,90,0.01,,,0.22,,2013-12-02 10:52:00,
2013-12-02 04:11:00,36.0,34.0,29.62,ESE,113,0.0,2.0,91,0.01,,,0.22,,2013-12-02 11:11:00,
2013-12-02 04:22:00,35.0,33.0,29.61,South,180,2.0,5.0,92,0.01,,,0.22,,2013-12-02 11:22:00,
2013-12-02 04:42:00,35.0,33.0,29.61,SE,135,0.0,2.0,93,0.01,,,0.22,,2013-12-02 11:42:00,
2013-12-02 04:53:00,35.0,33.0,29.60,SW,225,0.0,4.0,94,0.01,,,0.23,,2013-12-02 11:53:00,
2013-12-02 05:11:00,34.0,32.0,29.61,South,180,0.0,4.0,94,0.01,,,0.23,,2013-12-02 12:11:00,
2013-12-02 05:21:00,34.0,33.0,29.61,East,90,2.0,4.0,95,0.01,,,0.23,,2013-12-02 12:21:00,
2013-12-02 05:42:00,34.0,33.0,29.60,NE,45,2.0,5.0,95,0.01,,,0.23,,2013-12-02 12:42:00,
2013-12-02 05:52:00,33.0,32.0,29.61,SW,225,0.0,2.0,95,0.00,,,0.23,,2013-12-02 12:52:00,
2013-12-02 06:11:00,33.0,32.0,29.60,East,90,0.0,3.0,96,0.00,,,0.23,,2013-12-02 13:11:00,
2013-12-02 06:21:00,33.0,32.0,29.60,SW,225,0.0,2.0,96,0.00,,,0.23,,2013-12-02 13:21:00,
2013-12-02 06:42:00,33.0,32.0,29.61,North,0,0.0,2.0,96,0.00,,,0.23,,2013-12-02 13:42:00,
2013-12-02 06:52:00,33.0,32.0,29.62,West,270,2.0,7.0,97,0.00,,,0.23,,2013-12-02 13:52:00,
2013-12-02 07:11:00,33.0,32.0,29.62,West,270,2.0,4.0,97,0.00,,,0.23,,2013-12-02 14:11:00,
2013-12-02 07:22:00,32.0,31.0,29.62,West,270,0.0,0.0,97,0.00,,,0.23,,2013-12-02 14:22:00,
2013-12-02 07:42:00,32.0,31.0,29.62,West,270,0.0,0.0,97,0.00,,,0.23,,2013-12-02 14:42:00,
2013-12-02 07:52:00,32.0,31.0,29.61,West,270,2.0,4.0,97,0.00,,,0.23,,2013-12-02 14:52:00,
2013-12-02 08:12:00,32.0,31.0,29.62,West,270,2.0,3.0,97,0.00,,,0.23,,2013-12-02 15:12:00,
2013-12-02 08:21:00,32.0,31.0,29.62,West,270,0.0,1.0,96,0.00,,,0.23,,2013-12-02 15:21:00,
2013-12-02 08:43:00,31.0,30.0,29.62,West,270,1.0,2.0,96,0.00,,,0.23,,2013-12-02 15:43:00,
2013-12-02 08:54:00,31.0,30.0,29.62,West,270,0.0,1.0,97,0.00,,,0.23,,2013-12-02 15:54:00,
2013-12-02 09:13:00,31.0,30.0,29.62,West,270,0.0,1.0,97,0.00,,,0.23,,2013-12-02 16:13:00,
2013-12-02 09:23:00,32.0,31.0,29.62,West,270,0.0,3.0,96,0.00,,,0.23,,2013-12-02 16:23:00,
2013-12-02 09:42:00,32.0,30.0,29.62,West,270,1.0,4.0,91,0.00,,,0.22,,2013-12-02 16:42:00,
2013-12-02 09:53:00,32.0,29.0,29.62,West,270,0.0,2.0,88,0.00,,,0.22,,2013-12-02 16:53:00,
2013-12-02 10:12:00,31.0,28.0,29.62,West,270,0.0,3.0,87,0.00,,,0.22,,2013-12-02 17:12:00,
2013-12-02 10:22:00,31.0,26.0,29.62,West,270,2.0,4.0,83,0.00,,,0.22,,2013-12-02 17:22:00,
2013-12-02 10:42:00,31.0,26.0,29.62,West,270,0.0,3.0,80,0.00,,,0.21,,2013-12-02 17:42:00,
2013-12-02 10:52:00,31.0,25.0,29.62,West,270,2.0,9.0,79,0.00,,,0.21,,2013-12-02 17:52:00,
2013-12-02 11:12:00,31.0,25.0,29.62,West,270,2.0,9.0,77,0.00,,,0.20,,2013-12-02 18:12:00,
2013-12-02 11:21:00,31.0,24.0,29.63,West,270,3.0,6.0,76,0.00,,,0.20,,2013-12-02 18:21:00,
2013-12-02 11:42:00,31.0,25.0,29.64,West,270,2.0,4.0,77,0.00,,,0.18,,2013-12-02 18:42:00,
2013-12-02 11:52:00,32.0,26.0,29.64,West,270,1.0,3.0,79,0.00,,,0.17,,2013-12-02 18:52:00,
2013-12-02 12:12:00,34.0,28.0,29.65,West,270,2.0,3.0,77,0.00,,,0.16,,2013-12-02 19:12:00,
2013-12-02 12:21:00,34.0,27.0,29.64,West,270,3.0,7.0,74,0.00,,,0.15,,2013-12-02 19:21:00,
2013-12-02 12:42:00,34.0,26.0,29.65,West,270,1.0,4.0,73,0.00,,,0.15,,2013-12-02 19:42:00,
2013-12-02 12:52:00,33.0,25.0,29.66,West,270,2.0,5.0,71,0.00,,,0.14,,2013-12-02 19:52:00,
2013-12-02 13:11:00,33.0,25.0,29.66,West,270,1.0,4.0,71,0.00,,,0.14,,2013-12-02 20:11:00,
2013-12-02 13:21:00,34.0,25.0,29.66,West,270,1.0,3.0,69,0.00,,,0.12,,2013-12-02 20:21:00,
2013-12-02 13:42:00,34.0,25.0,29.66,West,270,0.0,4.0,68,0.00,,,0.12,,2013-12-02 20:42:00,
2013-12-02 13:52:00,35.0,25.0,29.67,West,270,3.0,4.0,66,0.00,,,0.11,,2013-12-02 20:52:00,
2013-12-02 14:11:00,35.0,24.0,29.68,West,270,2.0,6.0,65,0.00,,,0.10,,2013-12-02 21:11:00,
2013-12-02 14:21:00,34.0,23.0,29.69,West,270,1.0,4.0,63,0.00,,,0.10,,2013-12-02 21:21:00,
2013-12-02 14:43:00,33.0,23.0,29.69,West,270,1.0,4.0,65,0.00,,,0.10,,2013-12-02 21:43:00,
2013-12-02 14:53:00,31.0,21.0,29.71,West,270,2.0,6.0,67,0.00,,,0.09,,2013-12-02 21:53:00,
2013-12-02 15:13:00,27.0,20.0,29.73,West,270,2.0,5.0,73,0.00,,,0.09,,2013-12-02 22:13:00,
2013-12-02 15:22:00,25.0,18.0,29.75,West,270,1.0,5.0,73,0.00,,,0.08,,2013-12-02 22:22:00,
2013-12-02 15:42:00,23.0,16.0,29.76,West,270,2.0,5.0,75,0.00,,,0.08,,2013-12-02 22:42:00,
2013-12-02 15:53:00,21.0,15.0,29.78,West,270,2.0,4.0,76,0.00,,,0.08,,2013-12-02 22:53:00,
2013-12-02 16:12:00,20.0,14.0,29.79,West,270,0.0,2.0,77,0.00,,,0.07,,2013-12-02 23:12:00,
2013-12-02 16:22:00,19.0,14.0,29.80,NE,45,1.0,8.0,79,0.00,,,0.07,,2013-12-02 23:22:00,
2013-12-02 16:42:00,18.0,13.0,29.81,SE,135,2.0,5.0,81,0.00,,,0.07,,2013-12-02 23:42:00,
2013-12-02 16:53:00,17.0,12.0,29.82,East,90,1.0,5.0,82,0.00,,,0.07,,2013-12-02 23:53:00,
2013-12-02 17:11:00,17.0,12.0,29.83,East,90,3.0,5.0,82,0.00,,,0.07,,2013-12-03 00:11:00,
2013-12-02 17:21:00,16.0,12.0,29.86,East,90,2.0,4.0,83,0.00,,,0.07,,2013-12-03 00:21:00,
2013-12-02 17:42:00,16.0,11.0,29.86,SE,135,2.0,7.0,82,0.00,,,0.07,,2013-12-03 00:42:00,
2013-12-02 17:52:00,15.0,10.0,29.87,East,90,2.0,7.0,81,0.00,,,0.07,,2013-12-03 00:52:00,
2013-12-02 18:11:00,15.0,10.0,29.88,West,270,1.0,4.0,81,0.00,,,0.07,,2013-12-03 01:11:00,
2013-12-02 18:21:00,15.0,10.0,29.89,WNW,293,2.0,6.0,80,0.00,,,0.07,,2013-12-03 01:21:00,
2013-12-02 18:42:00,15.0,9.0,29.90,North,0,2.0,9.0,77,0.00,,,0.07,,2013-12-03 01:42:00,
2013-12-02 18:52:00,15.0,9.0,29.90,East,90,4.0,9.0,76,0.00,,,0.07,,2013-12-03 01:52:00,
2013-12-02 19:11:00,14.0,8.0,29.91,SW,225,1.0,4.0,75,0.00,,,0.07,,2013-12-03 02:11:00,
2013-12-02 19:21:00,14.0,7.0,29.91,NE,45,1.0,4.0,74,0.00,,,0.07,,2013-12-03 02:21:00,
2013-12-02 19:42:00,14.0,7.0,29.92,North,0,2.0,5.0,73,0.00,,,0.07,,2013-12-03 02:42:00,
2013-12-02 19:52:00,13.0,6.0,29.93,NE,45,4.0,8.0,73,0.00,,,0.07,,2013-12-03 02:52:00,
2013-12-02 20:11:00,13.0,6.0,29.94,NE,45,1.0,5.0,73,0.00,,,0.07,,2013-12-03 03:11:00,
2013-12-02 20:21:00,13.0,6.0,29.94,NE,45,2.0,13.0,73,0.00,,,0.07,,2013-12-03 03:21:00,
2013-12-02 20:43:00,13.0,6.0,29.95,West,270,1.0,2.0,73,0.00,,,0.07,,2013-12-03 03:43:00,
2013-12-02 20:53:00,13.0,6.0,29.96,NW,315,2.0,2.0,72,0.00,,,0.07,,2013-12-03 03:53:00,
2013-12-02 21:13:00,12.0,5.0,29.97,North,0,2.0,8.0,72,0.00,,,0.07,,2013-12-03 04:13:00,
2013-12-02 21:23:00,12.0,4.0,29.97,NE,45,3.0,6.0,71,0.00,,,0.07,,2013-12-03 04:23:00,
2013-12-02 21:42:00,12.0,4.0,29.98,East,90,1.0,7.0,71,0.00,,,0.07,,2013-12-03 04:42:00,
2013-12-02 21:52:00,12.0,4.0,30.00,East,90,1.0,7.0,70,0.00,,,0.07,,2013-12-03 04:52:00,
2013-12-02 22:12:00,12.0,4.0,30.01,SE,135,2.0,7.0,70,0.00,,,0.07,,2013-12-03 05:12:00,
2013-12-02 22:22:00,12.0,5.0,30.01,SW,225,1.0,11.0,72,0.00,,,0.07,,2013-12-03 05:22:00,
2013-12-02 22:42:00,11.0,4.0,30.01,West,270,2.0,5.0,73,0.00,,,0.07,,2013-12-03 05:42:00,
2013-12-02 22:53:00,11.0,4.0,30.02,SW,225,2.0,9.0,74,0.00,,,0.07,,2013-12-03 05:53:00,
2013-12-02 23:12:00,11.0,4.0,30.02,NW,315,2.0,5.0,74,0.00,,,0.07,,2013-12-03 06:12:00,
2013-12-02 23:22:00,11.0,4.0,30.02,East,90,0.0,5.0,73,0.00,,,0.07,,2013-12-03 06:22:00,
2013-12-02 23:42:00,11.0,4.0,30.04,East,90,3.0,5.0,73,0.00,,,0.07,,2013-12-03 06:42:00,
2013-12-02 23:52:00,11.0,3.0,30.04,NE,45,3.0,8.0,71,0.00,,,0.05,,2013-12-03 06:52:00,